Time;durP1;ratioP1;P1;durP2;ratioP2;P2;SDS_P1;SDS_P2;PMS_P1;PMS_P2;Temp;Humidity;BMP_temperature;BMP_pressure;BME280_temperature;BME280_humidity;BME280_pressure;Samples;Min_cycle;Max_cycle;Signal;HPM_P1;HPM_P2
2021/03/03 00:00:58;;;;;;;;;44.50;40.25;;;;;;;;5029815;28;11734;-76
2021/03/03 00:03:25;;;;;;;;;51.75;43.75;;;;;;;;5018861;28;12225;-72
2021/03/03 00:05:52;;;;;;;;;41.25;38.75;;;;;;;;5024145;28;11586;-76
2021/03/03 00:08:19;;;;;;;;;39.50;34.00;;;;;;;;5016880;28;12452;-75
2021/03/03 00:10:45;;;;;;;;;42.75;37.00;;;;;;;;5022087;28;11547;-75
2021/03/03 00:13:12;;;;;;;;;45.00;41.50;;;;;;;;5024183;28;11580;-77
2021/03/03 00:15:39;;;;;;;;;35.25;34.00;;;;;;;;5022431;28;11572;-73
2021/03/03 00:18:07;;;;;;;;;44.25;39.25;;;;;;;;5024064;28;11621;-76
2021/03/03 00:20:36;;;;;;;;;44.75;42.00;;;;;;;;5022958;28;11574;-75
2021/03/03 00:23:03;;;;;;;;;34.75;33.75;;;;;;;;5023971;28;11568;-74
2021/03/03 00:25:30;;;;;;;;;41.50;39.25;;;;;;;;5014666;28;12384;-73
2021/03/03 00:27:57;;;;;;;;;52.25;44.50;;;;;;;;5022923;28;11731;-72
2021/03/03 00:30:24;;;;;;;;;46.25;41.00;;;;;;;;5025531;28;12337;-72
2021/03/03 00:32:56;;;;;;;;;43.25;39.75;;;;;;;;5028507;28;11590;-75
2021/03/03 00:35:24;;;;;;;;;45.25;39.25;;;;;;;;5025323;28;12304;-76
2021/03/03 00:37:52;;;;;;;;;62.25;52.00;;;;;;;;5008672;28;11628;-76
2021/03/03 00:40:18;;;;;;;;;58.50;47.25;;;;;;;;5027316;28;11691;-75
2021/03/03 00:42:45;;;;;;;;;42.75;41.25;;;;;;;;5018532;28;12296;-76
2021/03/03 00:45:13;;;;;;;;;53.50;44.50;;;;;;;;5026276;28;12408;-73
2021/03/03 00:47:39;;;;;;;;;50.25;43.25;;;;;;;;5022884;28;11554;-72
2021/03/03 00:50:07;;;;;;;;;49.00;43.25;;;;;;;;5024320;28;11603;-72
2021/03/03 00:52:35;;;;;;;;;54.25;43.00;;;;;;;;5026445;28;12464;-76
2021/03/03 00:55:01;;;;;;;;;52.00;42.25;;;;;;;;5024210;28;11609;-75
2021/03/03 00:57:28;;;;;;;;;45.50;42.25;;;;;;;;5018070;28;11578;-72
2021/03/03 00:59:55;;;;;;;;;45.25;40.25;;;;;;;;5029169;28;11567;-71
2021/03/03 01:02:22;;;;;;;;;47.00;40.75;;;;;;;;5035649;28;11511;-71
2021/03/03 01:04:48;;;;;;;;;46.50;42.50;;;;;;;;5031328;28;11601;-74
2021/03/03 01:07:15;;;;;;;;;49.50;43.00;;;;;;;;5027388;28;11712;-74
2021/03/03 01:09:43;;;;;;;;;55.00;42.75;;;;;;;;5027347;28;11607;-76
2021/03/03 01:12:09;;;;;;;;;39.50;39.50;;;;;;;;5025966;28;11683;-75
2021/03/03 01:14:36;;;;;;;;;49.75;39.75;;;;;;;;5026086;28;11653;-74
2021/03/03 01:17:03;;;;;;;;;42.00;37.75;;;;;;;;5025509;28;11583;-75
2021/03/03 01:19:30;;;;;;;;;60.75;45.25;;;;;;;;5017135;28;11573;-75
2021/03/03 01:21:56;;;;;;;;;43.50;40.25;;;;;;;;5025394;28;11565;-75
2021/03/03 01:24:23;;;;;;;;;49.75;44.75;;;;;;;;5026188;28;11597;-74
2021/03/03 01:26:51;;;;;;;;;60.50;47.00;;;;;;;;5009259;28;12427;-76
2021/03/03 01:29:18;;;;;;;;;56.00;49.00;;;;;;;;5026379;28;11578;-74
2021/03/03 01:31:45;;;;;;;;;52.25;46.75;;;;;;;;5028487;28;11645;-75
2021/03/03 01:34:12;;;;;;;;;53.00;45.50;;;;;;;;5026558;28;11549;-75
2021/03/03 01:36:39;;;;;;;;;46.75;39.75;;;;;;;;5027425;28;11594;-74
2021/03/03 01:39:06;;;;;;;;;50.25;44.75;;;;;;;;5026108;28;11603;-76
2021/03/03 01:41:32;;;;;;;;;54.75;43.75;;;;;;;;5025857;28;11590;-73
2021/03/03 01:44:00;;;;;;;;;46.75;41.50;;;;;;;;5026550;28;11563;-76
2021/03/03 01:46:27;;;;;;;;;53.00;42.25;;;;;;;;5007094;28;11574;-74
2021/03/03 01:48:54;;;;;;;;;48.50;41.50;;;;;;;;5026149;28;12403;-76
2021/03/03 01:51:20;;;;;;;;;49.75;46.00;;;;;;;;5024593;28;12377;-76
2021/03/03 01:53:47;;;;;;;;;59.25;48.75;;;;;;;;5024236;28;11581;-75
2021/03/03 01:56:14;;;;;;;;;64.25;47.25;;;;;;;;5024452;28;11650;-76
2021/03/03 01:58:41;;;;;;;;;48.50;41.75;;;;;;;;5001160;28;11580;-75
2021/03/03 02:01:08;;;;;;;;;51.50;45.75;;;;;;;;5026983;28;11507;-73
2021/03/03 02:03:38;;;;;;;;;55.50;45.50;;;;;;;;5025245;28;11576;-76
2021/03/03 02:06:12;;;;;;;;;65.33;48.67;;;;;;;;5022844;28;11591;-75
2021/03/03 02:08:43;;;;;;;;;67.00;53.00;;;;;;;;5024772;28;11575;-75
2021/03/03 02:11:16;;;;;;;;;61.33;50.00;;;;;;;;5024246;28;11578;-75
2021/03/03 02:13:45;;;;;;;;;63.33;52.67;;;;;;;;5007344;28;11559;-73
2021/03/03 02:16:15;;;;;;;;;71.33;60.67;;;;;;;;5026096;28;11800;-74
2021/03/03 02:18:43;;;;;;;;;63.00;50.00;;;;;;;;5012468;28;8891;-76
2021/03/03 02:21:12;;;;;;;;;70.67;56.67;;;;;;;;5024630;28;8869;-75
2021/03/03 02:23:46;;;;;;;;;69.00;57.33;;;;;;;;5014539;28;8868;-76
2021/03/03 02:26:15;;;;;;;;;65.33;54.00;;;;;;;;5024436;28;11581;-75
2021/03/03 02:28:42;;;;;;;;;69.33;55.33;;;;;;;;5016914;28;11593;-75
2021/03/03 02:31:09;;;;;;;;;73.00;56.00;;;;;;;;5019125;28;11535;-75
2021/03/03 02:33:36;;;;;;;;;67.67;54.67;;;;;;;;5034690;28;11622;-74
2021/03/03 02:36:04;;;;;;;;;63.00;53.00;;;;;;;;5022483;28;12397;-76
2021/03/03 02:38:31;;;;;;;;;65.33;52.33;;;;;;;;5024422;28;9712;-74
2021/03/03 02:40:58;;;;;;;;;68.33;50.00;;;;;;;;5013406;28;11597;-75
2021/03/03 02:43:29;;;;;;;;;65.00;50.33;;;;;;;;5018158;28;12329;-75
2021/03/03 02:45:57;;;;;;;;;56.67;50.00;;;;;;;;5025219;28;11616;-75
2021/03/03 02:48:24;;;;;;;;;66.33;53.00;;;;;;;;5023931;28;11774;-76
2021/03/03 02:50:50;;;;;;;;;67.33;56.00;;;;;;;;5024289;28;11587;-76
2021/03/03 02:53:17;;;;;;;;;74.33;56.33;;;;;;;;5016820;28;11616;-76
2021/03/03 02:55:44;;;;;;;;;69.33;56.00;;;;;;;;5021530;28;8884;-74
2021/03/03 02:58:11;;;;;;;;;66.67;54.33;;;;;;;;5024701;28;8857;-75
2021/03/03 03:00:41;;;;;;;;;75.33;56.67;;;;;;;;5027758;28;11552;-75
2021/03/03 03:03:14;;;;;;;;;56.67;48.33;;;;;;;;5025102;28;8959;-72
2021/03/03 03:05:46;;;;;;;;;69.00;53.00;;;;;;;;5021850;28;8884;-75
2021/03/03 03:08:17;;;;;;;;;67.67;54.33;;;;;;;;5015063;28;8903;-76
2021/03/03 03:10:44;;;;;;;;;61.33;49.67;;;;;;;;5012714;28;8910;-76
2021/03/03 03:13:14;;;;;;;;;65.00;53.33;;;;;;;;5023238;28;11561;-76
2021/03/03 03:15:42;;;;;;;;;58.00;44.67;;;;;;;;5024890;28;8868;-75
2021/03/03 03:18:15;;;;;;;;;62.33;51.33;;;;;;;;5022064;28;11560;-76
2021/03/03 03:20:42;;;;;;;;;56.33;47.33;;;;;;;;5015047;28;11573;-75
2021/03/03 03:23:10;;;;;;;;;66.00;54.33;;;;;;;;5010512;28;12502;-75
2021/03/03 03:25:38;;;;;;;;;63.67;53.00;;;;;;;;5016144;28;11610;-76
2021/03/03 03:28:05;;;;;;;;;61.67;48.67;;;;;;;;5024513;28;11562;-76
2021/03/03 03:30:33;;;;;;;;;55.00;49.00;;;;;;;;5022847;28;11546;-75
2021/03/03 03:33:01;;;;;;;;;57.67;50.00;;;;;;;;5033805;28;11717;-72
2021/03/03 03:35:29;;;;;;;;;60.67;50.00;;;;;;;;5023036;28;11577;-77
2021/03/03 03:37:57;;;;;;;;;63.00;49.00;;;;;;;;5024741;28;11687;-74
2021/03/03 03:40:24;;;;;;;;;53.00;45.33;;;;;;;;5023188;28;13112;-74
2021/03/03 03:42:54;;;;;;;;;55.33;46.67;;;;;;;;5021023;28;12352;-75
2021/03/03 03:45:22;;;;;;;;;56.00;46.00;;;;;;;;5006709;28;11597;-74
2021/03/03 03:47:49;;;;;;;;;58.00;48.67;;;;;;;;5016439;28;11572;-74
2021/03/03 03:50:18;;;;;;;;;57.33;46.00;;;;;;;;5024358;28;11585;-73
2021/03/03 03:52:45;;;;;;;;;53.00;47.67;;;;;;;;5014480;28;11631;-76
2021/03/03 03:55:13;;;;;;;;;53.67;47.00;;;;;;;;5024083;28;12487;-74
2021/03/03 03:57:48;;;;;;;;;54.33;46.00;;;;;;;;5022196;28;12376;-74
2021/03/03 04:00:17;;;;;;;;;62.33;50.33;;;;;;;;5027951;28;11557;-73
2021/03/03 04:02:44;;;;;;;;;58.25;49.50;;;;;;;;5023675;28;11583;-74
2021/03/03 04:05:13;;;;;;;;;51.67;47.00;;;;;;;;5025009;28;11613;-75
2021/03/03 04:07:40;;;;;;;;;62.00;52.00;;;;;;;;5017869;28;11586;-74
2021/03/03 04:10:09;;;;;;;;;60.25;49.25;;;;;;;;5025792;28;12179;-75
2021/03/03 04:12:36;;;;;;;;;58.50;49.00;;;;;;;;5017329;28;11784;-73
2021/03/03 04:15:03;;;;;;;;;56.33;48.67;;;;;;;;5026511;28;12251;-76
2021/03/03 04:17:30;;;;;;;;;61.50;50.75;;;;;;;;5027768;28;12213;-76
2021/03/03 04:19:56;;;;;;;;;64.25;45.50;;;;;;;;5027394;28;11534;-75
2021/03/03 04:22:23;;;;;;;;;64.25;51.25;;;;;;;;5021168;28;11573;-75
2021/03/03 04:24:51;;;;;;;;;63.75;49.75;;;;;;;;5009626;28;11560;-75
2021/03/03 04:27:17;;;;;;;;;68.75;53.75;;;;;;;;5017660;28;11578;-75
2021/03/03 04:29:44;;;;;;;;;70.50;55.75;;;;;;;;5024694;28;11725;-78
2021/03/03 04:32:11;;;;;;;;;68.00;55.00;;;;;;;;5026857;28;12352;-76
2021/03/03 04:34:38;;;;;;;;;58.00;51.00;;;;;;;;5019573;28;11596;-75
2021/03/03 04:37:04;;;;;;;;;70.67;59.33;;;;;;;;5026017;28;11558;-76
2021/03/03 04:39:31;;;;;;;;;72.00;56.33;;;;;;;;5026530;28;11623;-76
2021/03/03 04:41:59;;;;;;;;;65.25;53.75;;;;;;;;5027173;28;11618;-76
2021/03/03 04:44:26;;;;;;;;;61.00;52.33;;;;;;;;5025668;28;11584;-75
2021/03/03 04:46:52;;;;;;;;;64.75;54.50;;;;;;;;5025768;28;11705;-76
2021/03/03 04:49:19;;;;;;;;;66.33;54.00;;;;;;;;5025411;28;11610;-76
2021/03/03 04:51:46;;;;;;;;;84.00;63.67;;;;;;;;5017807;28;11627;-75
2021/03/03 04:54:13;;;;;;;;;65.67;53.00;;;;;;;;5023027;28;8929;-75
2021/03/03 04:56:39;;;;;;;;;70.25;57.00;;;;;;;;5026700;28;11678;-76
2021/03/03 04:59:07;;;;;;;;;66.25;54.25;;;;;;;;5026356;28;11605;-76
2021/03/03 05:01:34;;;;;;;;;71.50;53.00;;;;;;;;5028890;28;11564;-72
2021/03/03 05:04:01;;;;;;;;;62.75;51.75;;;;;;;;5026853;28;11670;-74
2021/03/03 05:06:27;;;;;;;;;69.25;55.00;;;;;;;;5021225;28;11614;-74
2021/03/03 05:08:54;;;;;;;;;68.25;55.75;;;;;;;;5026447;28;12621;-74
2021/03/03 05:11:23;;;;;;;;;60.50;49.00;;;;;;;;5026186;28;11604;-74
2021/03/03 05:13:50;;;;;;;;;62.75;49.75;;;;;;;;5025917;28;11618;-74
2021/03/03 05:16:17;;;;;;;;;63.25;54.00;;;;;;;;5025399;28;12306;-75
2021/03/03 05:18:44;;;;;;;;;62.75;48.75;;;;;;;;5026035;28;11604;-74
2021/03/03 05:21:11;;;;;;;;;66.33;55.67;;;;;;;;5020708;28;11580;-74
2021/03/03 05:23:38;;;;;;;;;72.33;55.33;;;;;;;;5025107;28;11715;-74
2021/03/03 05:26:06;;;;;;;;;64.33;53.00;;;;;;;;5023480;28;11686;-74
2021/03/03 05:28:33;;;;;;;;;68.33;57.00;;;;;;;;5025384;28;11567;-74
2021/03/03 05:31:00;;;;;;;;;67.33;52.00;;;;;;;;5025675;28;11502;-74
2021/03/03 05:33:29;;;;;;;;;69.67;54.33;;;;;;;;5035194;28;11598;-74
2021/03/03 05:35:57;;;;;;;;;68.00;55.00;;;;;;;;5025533;28;11569;-75
2021/03/03 05:38:25;;;;;;;;;68.33;52.00;;;;;;;;5025244;28;11585;-74
2021/03/03 05:40:53;;;;;;;;;64.67;52.00;;;;;;;;5024675;28;11734;-74
2021/03/03 05:43:20;;;;;;;;;70.33;56.33;;;;;;;;5026394;28;11548;-74
2021/03/03 05:45:48;;;;;;;;;59.33;50.00;;;;;;;;5024949;28;8920;-73
2021/03/03 05:48:19;;;;;;;;;69.00;56.67;;;;;;;;5024563;28;11537;-75
2021/03/03 05:50:52;;;;;;;;;67.67;54.33;;;;;;;;5018068;28;8895;-74
2021/03/03 05:53:19;;;;;;;;;74.67;56.00;;;;;;;;5025819;28;8904;-74
2021/03/03 05:55:46;;;;;;;;;60.67;51.00;;;;;;;;5025926;28;11571;-74
2021/03/03 05:58:13;;;;;;;;;67.33;52.67;;;;;;;;5021867;28;8903;-74
2021/03/03 06:00:40;;;;;;;;;61.67;50.33;;;;;;;;5029351;28;8844;-74
2021/03/03 06:03:07;;;;;;;;;64.00;54.67;;;;;;;;5024383;28;9483;-75
2021/03/03 06:05:35;;;;;;;;;69.00;54.33;;;;;;;;5023163;28;8908;-74
2021/03/03 06:08:02;;;;;;;;;68.00;54.00;;;;;;;;5024973;28;11588;-74
2021/03/03 06:10:29;;;;;;;;;53.67;46.67;;;;;;;;5025382;28;11665;-75
2021/03/03 06:12:56;;;;;;;;;58.00;47.33;;;;;;;;5019965;28;11522;-75
2021/03/03 06:15:23;;;;;;;;;61.00;48.00;;;;;;;;5023697;28;11596;-74
2021/03/03 06:17:50;;;;;;;;;61.33;53.33;;;;;;;;5019662;28;11574;-73
2021/03/03 06:20:18;;;;;;;;;66.67;56.00;;;;;;;;5023898;28;8868;-74
2021/03/03 06:22:45;;;;;;;;;74.67;57.33;;;;;;;;5023182;28;8871;-74
2021/03/03 06:25:20;;;;;;;;;65.00;53.00;;;;;;;;5023057;28;8983;-74
2021/03/03 06:27:47;;;;;;;;;68.33;57.00;;;;;;;;5018436;28;8856;-74
2021/03/03 06:30:16;;;;;;;;;69.33;53.67;;;;;;;;5024744;28;8880;-74
2021/03/03 06:32:57;;;;;;;;;63.33;50.67;;;;;;;;5024508;28;11639;-75
2021/03/03 06:35:35;;;;;;;;;68.00;54.67;;;;;;;;5015573;28;11598;-75
2021/03/03 06:38:02;;;;;;;;;62.33;51.67;;;;;;;;5005771;28;11597;-74
2021/03/03 06:40:30;;;;;;;;;73.00;56.00;;;;;;;;5024852;28;8882;-75
2021/03/03 06:42:57;;;;;;;;;63.67;50.00;;;;;;;;5023830;28;11601;-75
2021/03/03 06:45:28;;;;;;;;;66.00;54.67;;;;;;;;5024843;28;11618;-75
2021/03/03 06:47:56;;;;;;;;;72.00;56.67;;;;;;;;5024862;28;11589;-75
2021/03/03 06:50:32;;;;;;;;;72.67;58.00;;;;;;;;5023718;28;11605;-75
2021/03/03 06:52:59;;;;;;;;;71.33;54.67;;;;;;;;5021209;28;11608;-75
2021/03/03 06:55:41;;;;;;;;;61.75;51.75;;;;;;;;5024159;28;11638;-75
2021/03/03 06:58:24;;;;;;;;;61.75;49.50;;;;;;;;5016193;28;11723;-75
2021/03/03 07:00:52;;;;;;;;;66.75;54.00;;;;;;;;5028047;28;11528;-74
2021/03/03 07:03:29;;;;;;;;;68.50;54.75;;;;;;;;5023707;28;11677;-73
2021/03/03 07:05:56;;;;;;;;;69.00;55.75;;;;;;;;5015378;28;11579;-75
2021/03/03 07:08:23;;;;;;;;;59.25;49.75;;;;;;;;5012558;28;11524;-76
2021/03/03 07:10:50;;;;;;;;;62.50;51.00;;;;;;;;5013917;28;11574;-75
2021/03/03 07:13:18;;;;;;;;;66.50;53.75;;;;;;;;5013126;28;11573;-76
2021/03/03 07:15:46;;;;;;;;;61.50;50.50;;;;;;;;5023053;28;11636;-75
2021/03/03 07:18:32;;;;;;;;;59.75;48.25;;;;;;;;5006408;28;12428;-75
2021/03/03 07:21:00;;;;;;;;;63.50;52.00;;;;;;;;5013171;28;11509;-76
2021/03/03 07:23:48;;;;;;;;;59.25;48.00;;;;;;;;5019506;28;11698;-75
2021/03/03 07:26:16;;;;;;;;;66.50;54.75;;;;;;;;5023133;28;12315;-75
2021/03/03 07:28:44;;;;;;;;;68.25;56.50;;;;;;;;5015577;28;11643;-75
2021/03/03 07:31:13;;;;;;;;;61.00;50.50;;;;;;;;5019371;28;11516;-74
2021/03/03 07:33:39;;;;;;;;;58.00;49.25;;;;;;;;5031441;28;11686;-75
2021/03/03 07:36:08;;;;;;;;;66.50;55.00;;;;;;;;5023440;28;11724;-75
2021/03/03 07:38:36;;;;;;;;;70.00;55.50;;;;;;;;5020094;28;11632;-75
2021/03/03 07:41:08;;;;;;;;;65.25;51.50;;;;;;;;5021914;28;12378;-75
2021/03/03 07:43:36;;;;;;;;;58.75;51.00;;;;;;;;5021359;28;11679;-72
2021/03/03 07:46:05;;;;;;;;;67.25;51.25;;;;;;;;5026773;28;11581;-73
2021/03/03 07:48:33;;;;;;;;;61.50;51.25;;;;;;;;5024021;28;11680;-72
2021/03/03 07:51:01;;;;;;;;;62.50;48.00;;;;;;;;5020386;28;11546;-72
2021/03/03 07:53:29;;;;;;;;;68.50;54.75;;;;;;;;5024114;28;11590;-72
2021/03/03 07:55:56;;;;;;;;;66.75;55.50;;;;;;;;5023862;28;11557;-70
2021/03/03 07:58:24;;;;;;;;;66.50;53.75;;;;;;;;5024828;28;11724;-72
2021/03/03 08:00:51;;;;;;;;;76.75;58.00;;;;;;;;5022167;28;11522;-72
2021/03/03 08:03:42;;;;;;;;;84.00;64.33;;;;;;;;5019674;28;11586;-72
2021/03/03 08:06:24;;;;;;;;;95.00;73.33;;;;;;;;5020173;28;11595;-72
2021/03/03 08:09:24;;;;;;;;;63.67;51.33;;;;;;;;5023239;28;8971;-72
2021/03/03 08:12:03;;;;;;;;;100.33;85.33;;;;;;;;4936114;28;11729;-72
2021/03/03 08:14:40;;;;;;;;;85.33;68.33;;;;;;;;4936381;28;8865;-74
2021/03/03 08:17:08;;;;;;;;;93.33;70.67;;;;;;;;4985609;28;11685;-72
2021/03/03 08:19:59;;;;;;;;;87.00;70.67;;;;;;;;5022789;28;8892;-73
2021/03/03 08:22:48;;;;;;;;;88.67;70.33;;;;;;;;5018533;28;8872;-73
2021/03/03 08:25:42;;;;;;;;;78.00;62.33;;;;;;;;5024197;28;11727;-70
2021/03/03 08:28:29;;;;;;;;;87.33;67.67;;;;;;;;5021341;28;12460;-71
2021/03/03 08:31:30;;;;;;;;;85.67;64.67;;;;;;;;5021401;28;11586;-72
2021/03/03 08:34:08;;;;;;;;;94.33;76.67;;;;;;;;4938916;28;11630;-72
2021/03/03 08:36:57;;;;;;;;;87.50;68.50;;;;;;;;4943895;28;11699;-70
2021/03/03 08:39:27;;;;;;;;;79.50;63.75;;;;;;;;4988844;28;11657;-71
2021/03/03 08:41:54;;;;;;;;;74.00;60.00;;;;;;;;5024885;28;11806;-73
2021/03/03 08:44:21;;;;;;;;;82.75;62.25;;;;;;;;5021210;28;12711;-73
2021/03/03 08:46:50;;;;;;;;;80.50;62.00;;;;;;;;5022309;28;11607;-73
2021/03/03 08:49:30;;;;;;;;;71.50;57.00;;;;;;;;5019450;28;11604;-72
2021/03/03 08:52:13;;;;;;;;;77.50;57.25;;;;;;;;5019423;28;11622;-72
2021/03/03 08:54:44;;;;;;;;;76.75;60.75;;;;;;;;5004692;28;11566;-72
2021/03/03 08:57:33;;;;;;;;;67.25;54.75;;;;;;;;5025342;28;12464;-72
2021/03/03 09:00:00;;;;;;;;;75.75;59.00;;;;;;;;5024224;28;11565;-71
2021/03/03 09:02:38;;;;;;;;;73.75;58.00;;;;;;;;5023873;28;11555;-72
2021/03/03 09:05:10;;;;;;;;;62.75;51.75;;;;;;;;5027018;28;11665;-72
2021/03/03 09:07:39;;;;;;;;;75.00;61.50;;;;;;;;5022420;28;12419;-72
2021/03/03 09:10:09;;;;;;;;;73.00;57.25;;;;;;;;5023252;28;11628;-72
2021/03/03 09:12:39;;;;;;;;;66.75;55.50;;;;;;;;5022027;28;11700;-72
2021/03/03 09:15:09;;;;;;;;;76.50;56.00;;;;;;;;5024913;28;11697;-72
2021/03/03 09:17:37;;;;;;;;;66.50;53.75;;;;;;;;5024379;28;11666;-72
2021/03/03 09:20:10;;;;;;;;;64.50;54.75;;;;;;;;5022535;28;11534;-72
2021/03/03 09:22:39;;;;;;;;;65.50;53.75;;;;;;;;5019436;28;11593;-71
2021/03/03 09:25:13;;;;;;;;;66.00;54.00;;;;;;;;5019786;28;11588;-72
2021/03/03 09:27:40;;;;;;;;;63.00;52.00;;;;;;;;5019690;28;11675;-72
2021/03/03 09:30:10;;;;;;;;;70.00;56.25;;;;;;;;5026597;28;11690;-72
2021/03/03 09:32:37;;;;;;;;;70.25;56.00;;;;;;;;5036697;28;11663;-72
2021/03/03 09:35:06;;;;;;;;;64.75;51.50;;;;;;;;5030510;28;11577;-72
2021/03/03 09:37:39;;;;;;;;;56.50;45.75;;;;;;;;5024728;28;11568;-73
2021/03/03 09:40:08;;;;;;;;;60.25;50.00;;;;;;;;5020898;28;11596;-72
2021/03/03 09:42:39;;;;;;;;;64.00;52.75;;;;;;;;5019497;28;11584;-72
2021/03/03 09:45:08;;;;;;;;;68.50;54.00;;;;;;;;5023449;28;11568;-71
2021/03/03 09:47:37;;;;;;;;;65.50;53.50;;;;;;;;5024271;28;11673;-72
2021/03/03 09:50:07;;;;;;;;;64.25;51.75;;;;;;;;5025084;28;11637;-73
2021/03/03 09:52:40;;;;;;;;;63.75;51.25;;;;;;;;5019899;28;11728;-72
2021/03/03 09:55:10;;;;;;;;;68.00;54.00;;;;;;;;5018896;28;11535;-72
2021/03/03 09:57:37;;;;;;;;;66.00;53.00;;;;;;;;5012634;28;11550;-73
2021/03/03 10:00:08;;;;;;;;;62.50;52.00;;;;;;;;5023680;28;11509;-72
2021/03/03 10:02:35;;;;;;;;;67.50;54.50;;;;;;;;5023898;28;11658;-72
2021/03/03 10:05:02;;;;;;;;;74.50;55.00;;;;;;;;5019942;28;11514;-72
2021/03/03 10:07:29;;;;;;;;;63.00;50.25;;;;;;;;5023657;28;12374;-73
2021/03/03 10:09:59;;;;;;;;;66.75;53.00;;;;;;;;5024547;28;11545;-72
2021/03/03 10:12:28;;;;;;;;;69.00;52.50;;;;;;;;5021225;28;11717;-73
2021/03/03 10:15:04;;;;;;;;;70.75;55.25;;;;;;;;5021554;28;11585;-74
2021/03/03 10:17:36;;;;;;;;;67.75;54.00;;;;;;;;5013798;28;11678;-74
2021/03/03 10:20:06;;;;;;;;;71.75;55.25;;;;;;;;5024981;28;11605;-72
2021/03/03 10:22:33;;;;;;;;;66.00;52.50;;;;;;;;5017495;28;11139;-73
2021/03/03 10:25:03;;;;;;;;;64.75;52.00;;;;;;;;5025448;28;11292;-73
2021/03/03 10:27:37;;;;;;;;;64.25;51.25;;;;;;;;5022654;28;11143;-73
2021/03/03 10:30:21;;;;;;;;;60.25;50.00;;;;;;;;5019594;28;11125;-72
2021/03/03 10:32:48;;;;;;;;;64.50;51.50;;;;;;;;5029084;28;10989;-73
2021/03/03 10:35:15;;;;;;;;;61.50;50.50;;;;;;;;5023158;28;11030;-73
2021/03/03 10:37:41;;;;;;;;;60.00;51.00;;;;;;;;5001312;28;10705;-73
2021/03/03 10:40:13;;;;;;;;;53.25;44.50;;;;;;;;5009914;28;10783;-74
2021/03/03 10:42:41;;;;;;;;;64.25;53.00;;;;;;;;5024453;28;11605;-72
2021/03/03 10:45:18;;;;;;;;;64.50;51.00;;;;;;;;5013685;28;10747;-73
2021/03/03 10:47:48;;;;;;;;;71.50;53.00;;;;;;;;5023312;28;10696;-73
2021/03/03 10:50:16;;;;;;;;;61.25;49.00;;;;;;;;5016992;28;10988;-73
2021/03/03 10:52:57;;;;;;;;;69.00;54.25;;;;;;;;5025550;28;10872;-72
2021/03/03 10:55:32;;;;;;;;;65.00;50.75;;;;;;;;5006511;28;10834;-72
2021/03/03 10:58:09;;;;;;;;;67.25;53.75;;;;;;;;5015550;28;10937;-73
2021/03/03 11:00:56;;;;;;;;;59.00;49.50;;;;;;;;5018948;28;10908;-72
2021/03/03 11:03:23;;;;;;;;;67.50;53.00;;;;;;;;5013850;28;10916;-73
2021/03/03 11:05:53;;;;;;;;;67.25;53.75;;;;;;;;5022019;28;10875;-72
2021/03/03 11:08:20;;;;;;;;;65.00;52.00;;;;;;;;5017583;28;10708;-73
2021/03/03 11:10:48;;;;;;;;;63.75;51.25;;;;;;;;5023190;28;10943;-73
2021/03/03 11:13:14;;;;;;;;;64.50;51.50;;;;;;;;5020830;28;10552;-73
2021/03/03 11:15:42;;;;;;;;;72.25;54.75;;;;;;;;5022611;28;10607;-74
2021/03/03 11:18:09;;;;;;;;;62.50;52.00;;;;;;;;5023063;28;10596;-73
2021/03/03 11:20:37;;;;;;;;;62.50;51.00;;;;;;;;5022696;28;10219;-73
2021/03/03 11:23:04;;;;;;;;;72.00;56.25;;;;;;;;5006626;28;10346;-72
2021/03/03 11:25:31;;;;;;;;;67.50;52.75;;;;;;;;5020469;28;10482;-73
2021/03/03 11:27:59;;;;;;;;;68.75;53.25;;;;;;;;5023198;28;10233;-73
2021/03/03 11:30:26;;;;;;;;;63.50;50.50;;;;;;;;5022658;28;9910;-73
2021/03/03 11:32:52;;;;;;;;;68.25;53.50;;;;;;;;5033266;28;9835;-74
2021/03/03 11:35:20;;;;;;;;;62.75;50.50;;;;;;;;5024389;28;10689;-74
2021/03/03 11:37:47;;;;;;;;;62.25;52.25;;;;;;;;5022636;28;9662;-73
2021/03/03 11:40:15;;;;;;;;;65.00;52.75;;;;;;;;5019660;28;9918;-73
2021/03/03 11:42:42;;;;;;;;;64.75;51.00;;;;;;;;5023649;28;9741;-73
2021/03/03 11:45:11;;;;;;;;;58.67;48.00;;;;;;;;5013068;28;9650;-73
2021/03/03 11:47:38;;;;;;;;;64.50;51.75;;;;;;;;5020417;28;9428;-74
2021/03/03 11:50:06;;;;;;;;;66.50;53.75;;;;;;;;5023344;28;9699;-73
2021/03/03 11:52:32;;;;;;;;;64.00;49.50;;;;;;;;5023692;28;9426;-74
2021/03/03 11:54:59;;;;;;;;;64.25;52.25;;;;;;;;5013265;28;9594;-74
2021/03/03 11:57:26;;;;;;;;;64.25;52.75;;;;;;;;5023816;28;9885;-73
2021/03/03 11:59:53;;;;;;;;;66.25;54.00;;;;;;;;5027879;28;9759;-73
2021/03/03 12:02:21;;;;;;;;;60.00;48.00;;;;;;;;5017716;28;9857;-73
2021/03/03 12:04:47;;;;;;;;;68.50;54.00;;;;;;;;5022943;28;12598;-73
2021/03/03 12:07:14;;;;;;;;;60.50;49.00;;;;;;;;5022298;28;9648;-74
2021/03/03 12:09:41;;;;;;;;;58.33;48.33;;;;;;;;5021986;28;9481;-74
2021/03/03 12:12:10;;;;;;;;;60.33;48.67;;;;;;;;5026281;28;9346;-74
2021/03/03 12:14:36;;;;;;;;;58.67;47.67;;;;;;;;5023757;28;9176;-73
2021/03/03 12:17:04;;;;;;;;;55.33;46.00;;;;;;;;5023221;28;9265;-74
2021/03/03 12:19:31;;;;;;;;;55.00;46.75;;;;;;;;5023336;28;8956;-74
2021/03/03 12:21:58;;;;;;;;;48.75;40.75;;;;;;;;5020071;28;8857;-74
2021/03/03 12:24:25;;;;;;;;;55.50;45.00;;;;;;;;5019502;28;8876;-74
2021/03/03 12:26:53;;;;;;;;;48.00;40.00;;;;;;;;5025954;28;8863;-73
2021/03/03 12:29:20;;;;;;;;;53.50;43.50;;;;;;;;5020693;28;9640;-74
2021/03/03 12:31:47;;;;;;;;;53.50;43.00;;;;;;;;5029930;28;8851;-73
2021/03/03 12:34:14;;;;;;;;;51.00;42.00;;;;;;;;5027961;28;8991;-75
2021/03/03 12:36:42;;;;;;;;;49.75;40.75;;;;;;;;5018944;28;8873;-74
2021/03/03 12:39:08;;;;;;;;;50.50;41.50;;;;;;;;5019048;28;8860;-74
2021/03/03 12:41:35;;;;;;;;;48.50;41.00;;;;;;;;5019389;28;8967;-74
2021/03/03 12:44:02;;;;;;;;;42.00;37.25;;;;;;;;5025928;28;8845;-74
2021/03/03 12:46:29;;;;;;;;;46.50;39.50;;;;;;;;5025742;28;8869;-74
2021/03/03 12:48:56;;;;;;;;;46.00;39.75;;;;;;;;5023928;28;8987;-74
2021/03/03 12:51:23;;;;;;;;;39.25;34.00;;;;;;;;5021246;28;8870;-74
2021/03/03 12:53:51;;;;;;;;;47.00;38.50;;;;;;;;5026075;28;8860;-74
2021/03/03 12:56:18;;;;;;;;;39.00;36.00;;;;;;;;5015375;28;8888;-75
2021/03/03 12:58:45;;;;;;;;;40.75;33.25;;;;;;;;5027435;28;8875;-74
2021/03/03 13:01:11;;;;;;;;;38.00;34.00;;;;;;;;5015256;28;8835;-74
2021/03/03 13:03:39;;;;;;;;;42.00;35.50;;;;;;;;5024802;28;8903;-74
2021/03/03 13:06:06;;;;;;;;;46.75;39.50;;;;;;;;5025355;28;8860;-74
2021/03/03 13:08:34;;;;;;;;;46.75;39.50;;;;;;;;5023440;28;8857;-75
2021/03/03 13:11:02;;;;;;;;;44.50;36.50;;;;;;;;5026072;28;8855;-73
2021/03/03 13:13:29;;;;;;;;;49.25;40.25;;;;;;;;5007585;28;8861;-73
2021/03/03 13:15:56;;;;;;;;;42.50;37.75;;;;;;;;5021036;28;8871;-74
2021/03/03 13:18:24;;;;;;;;;39.75;33.50;;;;;;;;5019887;28;8857;-75
2021/03/03 13:20:51;;;;;;;;;43.00;36.50;;;;;;;;5024646;28;8895;-74
2021/03/03 13:23:18;;;;;;;;;47.25;38.50;;;;;;;;5026723;28;9647;-74
2021/03/03 13:25:45;;;;;;;;;38.00;34.75;;;;;;;;5021459;28;8868;-73
2021/03/03 13:28:13;;;;;;;;;47.50;36.75;;;;;;;;5028631;28;8896;-74
2021/03/03 13:30:39;;;;;;;;;38.00;34.25;;;;;;;;5020813;28;8890;-74
2021/03/03 13:33:07;;;;;;;;;34.50;33.50;;;;;;;;5030405;28;8869;-74
2021/03/03 13:35:34;;;;;;;;;47.25;37.50;;;;;;;;5015630;28;9412;-74
2021/03/03 13:38:01;;;;;;;;;43.25;38.00;;;;;;;;5022470;28;9015;-74
2021/03/03 13:40:28;;;;;;;;;38.00;34.25;;;;;;;;5020529;28;8994;-74
2021/03/03 13:42:55;;;;;;;;;41.67;35.00;;;;;;;;5018130;28;8874;-74
2021/03/03 13:45:26;;;;;;;;;30.25;29.00;;;;;;;;5025505;28;8949;-75
2021/03/03 13:47:53;;;;;;;;;33.00;30.75;;;;;;;;4997908;28;8881;-75
2021/03/03 13:50:20;;;;;;;;;35.25;31.50;;;;;;;;5026269;28;8865;-74
2021/03/03 13:52:47;;;;;;;;;38.00;33.50;;;;;;;;5024745;28;8880;-73
2021/03/03 13:55:14;;;;;;;;;33.25;29.50;;;;;;;;5035347;28;8926;-74
2021/03/03 13:57:41;;;;;;;;;34.50;31.75;;;;;;;;5021614;28;8933;-74
2021/03/03 14:00:10;;;;;;;;;30.00;29.75;;;;;;;;5028368;28;8880;-74
2021/03/03 14:02:38;;;;;;;;;29.50;29.50;;;;;;;;5022646;28;8860;-74
2021/03/03 14:05:06;;;;;;;;;33.00;29.00;;;;;;;;5023672;28;9083;-73
2021/03/03 14:07:32;;;;;;;;;28.25;25.25;;;;;;;;5024719;28;8865;-74
2021/03/03 14:09:59;;;;;;;;;23.75;23.00;;;;;;;;5019657;28;8878;-73
2021/03/03 14:12:27;;;;;;;;;24.75;23.25;;;;;;;;5022689;28;8998;-70
2021/03/03 14:14:54;;;;;;;;;26.25;22.75;;;;;;;;5007753;28;8857;-72
2021/03/03 14:17:21;;;;;;;;;10.25;10.25;;;;;;;;5024431;28;8926;-72
2021/03/03 14:19:49;;;;;;;;;23.25;23.25;;;;;;;;5025917;28;9007;-73
2021/03/03 14:22:16;;;;;;;;;22.50;22.50;;;;;;;;5019190;28;8885;-73
2021/03/03 14:24:43;;;;;;;;;25.50;25.00;;;;;;;;5019853;28;8859;-73
2021/03/03 14:27:10;;;;;;;;;20.50;18.50;;;;;;;;5023299;28;9029;-73
2021/03/03 14:29:37;;;;;;;;;20.00;20.00;;;;;;;;5028811;28;9630;-73
2021/03/03 14:32:04;;;;;;;;;24.40;22.00;;;;;;;;5024214;28;8835;-75